Terminal Aerodrome Forecast
Issued by NWS

Current Version | Previous Version | Graphics & Text | Print | Product List | Glossary On
Versions: 1 2 3 4 5 6 7 8 9 10 11 12 13 14 15 16 17 18 19 20 21 22 23 24 25 26 27
000
FTUS41 KILN 021032 AAB
TAFLUK
TAF AMD
KLUK 021032Z 0211/0306 30006KT P6SM SCT008 BKN012
      TEMPO 0211/0213 5SM BR BKN008
     FM021500 26008KT P6SM BKN028
     FM022100 26008KT P6SM VCSH OVC040
     FM030100 36006KT 4SM BR OVC025
      TEMPO 0302/0306 1SM BR=

USA.gov is the U.S. government's official web portal to all federal, state and local government web resources and services.